Time;durP1;ratioP1;P1;durP2;ratioP2;P2;SDS_P1;SDS_P2;PMS_P1;PMS_P2;Temp;Humidity;BMP_temperature;BMP_pressure;BME280_temperature;BME280_humidity;BME280_pressure;Samples;Min_cycle;Max_cycle;Signal;HPM_P1;HPM_P2
2023/07/08 00:00:18;;;;;;;5.75;3.60;;;;;;;18.85;63.29;101648.00;4937840;29;20482;-76
2023/07/08 00:02:44;;;;;;;5.88;3.28;;;;;;;18.90;63.29;101640.63;4938018;29;20140;-75
2023/07/08 00:05:11;;;;;;;6.22;3.30;;;;;;;18.86;63.50;101641.81;4937965;29;20115;-75
2023/07/08 00:07:38;;;;;;;8.50;3.60;;;;;;;18.75;63.31;101623.59;4937990;29;20047;-76
2023/07/08 00:10:17;;;;;;;6.25;3.20;;;;;;;18.82;63.04;101636.03;4937621;29;20466;-75
2023/07/08 00:12:44;;;;;;;5.50;3.17;;;;;;;18.81;63.14;101633.53;4937743;29;20156;-75
2023/07/08 00:15:11;;;;;;;9.88;3.65;;;;;;;18.66;63.04;101613.91;4937543;29;20074;-76
2023/07/08 00:17:36;;;;;;;6.40;2.83;;;;;;;18.68;63.60;101614.59;4937782;29;20055;-75
2023/07/08 00:20:11;;;;;;;4.78;2.75;;;;;;;18.72;63.08;101623.84;4937865;29;20028;-76
2023/07/08 00:22:38;;;;;;;7.05;3.30;;;;;;;18.66;64.27;101626.97;4920464;29;20088;-76
2023/07/08 00:25:04;;;;;;;4.35;2.88;;;;;;;18.61;63.96;101615.09;4937548;29;20027;-75
2023/07/08 00:27:30;;;;;;;6.00;3.35;;;;;;;18.49;63.45;101600.44;4917929;29;20106;-76
2023/07/08 00:29:55;;;;;;;4.82;3.00;;;;;;;18.61;63.82;101620.31;4937369;29;20023;-74
2023/07/08 00:32:20;;;;;;;4.72;2.80;;;;;;;18.62;64.40;101623.78;4937289;29;20052;-75
2023/07/08 00:34:46;;;;;;;4.45;2.90;;;;;;;18.60;63.55;101621.28;4937438;29;20066;-75
2023/07/08 00:37:12;;;;;;;5.75;3.00;;;;;;;18.60;63.86;101623.06;4937545;29;20028;-76
2023/07/08 00:39:38;;;;;;;4.57;2.63;;;;;;;18.57;63.76;101611.06;4936679;29;20036;-76
2023/07/08 00:42:15;;;;;;;6.57;3.28;;;;;;;18.54;63.32;101613.94;4937291;29;20389;-76
2023/07/08 00:44:41;;;;;;;6.40;3.30;;;;;;;18.30;63.38;101567.16;4937085;29;20474;-75
2023/07/08 00:47:10;;;;;;;7.32;3.35;;;;;;;18.55;63.43;101614.78;4937327;29;20031;-75
2023/07/08 00:49:42;;;;;;;5.38;2.97;;;;;;;18.55;63.51;101602.53;4936929;29;20049;-74
2023/07/08 00:52:33;;;;;;;7.35;3.10;;;;;;;18.54;63.20;101613.94;4937106;29;20036;-75
2023/07/08 00:55:04;;;;;;;4.93;2.90;;;;;;;18.52;64.51;101615.03;4932498;29;20055;-75
2023/07/08 00:57:33;;;;;;;6.63;3.33;;;;;;;18.52;63.57;101615.88;4920103;29;20039;-75
2023/07/08 01:00:05;;;;;;;5.00;3.13;;;;;;;18.52;63.34;101610.63;4937138;29;20441;-76
2023/07/08 01:02:34;;;;;;;5.45;3.15;;;;;;;18.35;63.68;101583.28;4919710;29;20031;-75
2023/07/08 01:05:18;;;;;;;6.97;3.35;;;;;;;18.50;63.64;101603.88;4936721;29;20119;-75
2023/07/08 01:07:47;;;;;;;5.63;3.03;;;;;;;18.31;64.13;101594.97;4919291;29;20510;-76
2023/07/08 01:10:17;;;;;;;5.22;3.17;;;;;;;18.18;64.53;101573.38;4936867;29;20031;-76
2023/07/08 01:12:47;;;;;;;7.45;3.20;;;;;;;18.29;63.99;101599.50;4936757;29;20054;-75
2023/07/08 01:15:14;;;;;;;7.07;3.33;;;;;;;18.32;64.30;101604.47;4936563;29;20031;-75
2023/07/08 01:17:40;;;;;;;5.28;2.92;;;;;;;18.11;65.44;101587.13;4936566;29;20041;-76
2023/07/08 01:20:07;;;;;;;4.78;3.10;;;;;;;18.19;65.15;101609.06;4936656;29;20070;-76
2023/07/08 01:22:35;;;;;;;6.22;3.35;;;;;;;18.15;65.25;101602.41;4936774;29;20019;-75
2023/07/08 01:25:03;;;;;;;4.63;2.92;;;;;;;18.15;65.59;101612.03;4936553;29;20059;-76
2023/07/08 01:27:32;;;;;;;6.70;3.30;;;;;;;18.10;65.77;101606.38;4936566;29;20035;-75
2023/07/08 01:29:58;;;;;;;8.55;3.30;;;;;;;18.06;65.86;101606.59;4918905;29;20236;-76
2023/07/08 01:32:24;;;;;;;5.65;3.28;;;;;;;18.05;66.29;101606.72;4935998;29;20047;-76
2023/07/08 01:35:01;;;;;;;6.25;3.35;;;;;;;17.89;66.22;101575.78;4936294;29;20393;-75
2023/07/08 01:37:40;;;;;;;6.03;3.20;;;;;;;17.99;66.26;101599.38;4936123;29;20470;-73
2023/07/08 01:40:19;;;;;;;7.68;3.13;;;;;;;17.91;66.30;101589.59;4936314;29;20050;-75
2023/07/08 01:42:45;;;;;;;6.03;3.72;;;;;;;17.94;66.41;101601.56;4936223;29;20032;-75
2023/07/08 01:45:15;;;;;;;9.38;3.30;;;;;;;17.91;66.46;101594.81;4935630;29;20507;-75
2023/07/08 01:47:43;;;;;;;6.53;3.53;;;;;;;17.90;66.32;101581.88;4936225;29;20019;-75
2023/07/08 01:50:11;;;;;;;6.35;2.85;;;;;;;17.80;67.02;101568.72;4935894;29;20094;-75
2023/07/08 01:52:37;;;;;;;4.93;3.58;;;;;;;17.91;66.89;101591.38;4935979;29;20078;-76
2023/07/08 01:55:03;;;;;;;6.78;3.22;;;;;;;17.87;67.11;101589.94;4936062;29;20446;-75
2023/07/08 01:57:28;;;;;;;5.93;3.47;;;;;;;17.84;66.95;101590.19;4918634;29;20172;-75
2023/07/08 01:59:54;;;;;;;6.38;3.05;;;;;;;17.66;68.63;101575.03;4935433;29;20046;-76
2023/07/08 02:02:19;;;;;;;5.40;3.10;;;;;;;17.70;67.51;101580.88;4935707;29;20457;-75
2023/07/08 02:04:44;;;;;;;8.73;3.15;;;;;;;17.62;68.58;101567.56;4935784;29;20032;-75
2023/07/08 02:07:09;;;;;;;6.40;3.65;;;;;;;17.57;68.09;101560.09;4918344;29;20189;-75
2023/07/08 02:09:35;;;;;;;4.63;2.90;;;;;;;17.61;68.04;101568.53;4918312;29;20401;-75
2023/07/08 02:12:00;;;;;;;6.05;3.42;;;;;;;17.28;68.38;101519.84;4935865;29;20059;-74
2023/07/08 02:14:26;;;;;;;4.65;2.80;;;;;;;17.43;68.28;101544.72;4935543;29;20028;-75
2023/07/08 02:16:51;;;;;;;9.07;3.53;;;;;;;17.38;68.70;101555.53;4935459;29;20038;-75
2023/07/08 02:19:17;;;;;;;6.93;3.15;;;;;;;17.30;69.56;101544.03;4935597;29;20546;-75
2023/07/08 02:21:42;;;;;;;5.72;3.17;;;;;;;17.40;69.37;101561.47;4935601;29;20107;-76
2023/07/08 02:24:08;;;;;;;8.45;3.40;;;;;;;17.23;68.96;101533.28;4935465;29;20375;-76
2023/07/08 02:26:33;;;;;;;5.65;3.10;;;;;;;17.38;69.99;101544.25;4935418;29;20067;-75
2023/07/08 02:29:00;;;;;;;6.32;3.42;;;;;;;17.28;70.45;101538.94;4935426;29;20023;-76
2023/07/08 02:31:26;;;;;;;7.40;3.88;;;;;;;17.22;70.19;101530.78;4935071;29;20172;-76
2023/07/08 02:33:53;;;;;;;7.05;3.58;;;;;;;17.11;70.79;101521.19;4935105;29;20082;-75
2023/07/08 02:36:19;;;;;;;5.47;3.63;;;;;;;17.15;71.18;101543.47;4935337;29;20508;-74
2023/07/08 02:38:44;;;;;;;5.45;3.70;;;;;;;17.11;70.67;101537.69;4935363;29;20024;-76
2023/07/08 02:41:11;;;;;;;7.45;3.85;;;;;;;17.07;71.45;101541.47;4935151;29;20046;-76
2023/07/08 02:43:37;;;;;;;7.63;4.03;;;;;;;16.99;71.52;101532.59;4935359;29;20035;-76
2023/07/08 02:46:02;;;;;;;8.88;3.80;;;;;;;17.02;72.18;101545.41;4935171;29;20108;-75
2023/07/08 02:48:28;;;;;;;5.68;4.10;;;;;;;16.97;72.12;101543.16;4935361;29;20529;-75
2023/07/08 02:50:59;;;;;;;6.85;3.47;;;;;;;16.92;72.80;101537.47;4935454;29;20490;-75
2023/07/08 02:53:24;;;;;;;6.85;3.33;;;;;;;16.86;73.07;101544.00;4919622;29;20131;-76
2023/07/08 02:55:50;;;;;;;7.85;4.05;;;;;;;16.75;73.25;101535.34;4916056;29;20059;-74
2023/07/08 02:58:15;;;;;;;7.50;3.67;;;;;;;16.61;73.66;101512.91;4916325;29;20036;-75
2023/07/08 03:00:40;;;;;;;7.30;3.80;;;;;;;16.83;72.65;101538.19;4916041;29;20063;-75
2023/07/08 03:03:05;;;;;;;5.93;3.67;;;;;;;16.89;72.38;101542.91;4918911;29;20043;-76
2023/07/08 03:05:31;;;;;;;6.20;3.58;;;;;;;16.91;72.75;101551.44;4902917;29;20067;-75
2023/07/08 03:07:56;;;;;;;7.00;3.80;;;;;;;16.88;73.78;101547.31;4920125;29;20500;-75
2023/07/08 03:10:22;;;;;;;6.10;3.70;;;;;;;16.85;72.80;101552.78;4919942;29;20099;-75
2023/07/08 03:12:47;;;;;;;6.65;3.72;;;;;;;16.84;73.18;101548.50;4919933;29;20398;-76
2023/07/08 03:15:12;;;;;;;8.07;3.83;;;;;;;16.58;74.35;101524.41;4919793;29;20107;-75
2023/07/08 03:17:38;;;;;;;5.55;3.53;;;;;;;16.77;73.18;101555.13;4919521;29;20032;-75
2023/07/08 03:20:05;;;;;;;6.85;3.75;;;;;;;16.70;73.56;101538.28;4919806;29;20039;-75
2023/07/08 03:22:31;;;;;;;7.93;3.70;;;;;;;16.69;74.30;101552.28;4919954;29;20032;-75
2023/07/08 03:24:56;;;;;;;5.97;3.58;;;;;;;16.59;73.64;101533.88;4919419;29;20386;-75
2023/07/08 03:27:21;;;;;;;5.38;3.85;;;;;;;16.67;74.99;101555.94;4902646;29;20035;-75
2023/07/08 03:29:47;;;;;;;6.82;3.85;;;;;;;16.60;75.43;101552.97;4919697;29;20032;-75
2023/07/08 03:32:12;;;;;;;5.93;3.45;;;;;;;16.56;74.84;101544.56;4919012;29;20191;-75
2023/07/08 03:34:38;;;;;;;8.07;3.75;;;;;;;16.56;74.45;101547.16;4919570;29;20564;-76
2023/07/08 03:37:05;;;;;;;5.90;3.58;;;;;;;16.65;74.51;101556.06;4919605;29;20024;-75
2023/07/08 03:39:33;;;;;;;7.78;3.53;;;;;;;16.68;75.01;101557.59;4902521;29;20055;-75
2023/07/08 03:41:58;;;;;;;8.00;3.78;;;;;;;16.50;75.37;101526.75;4919441;29;20060;-76
2023/07/08 03:44:24;;;;;;;6.60;3.33;;;;;;;16.68;74.40;101555.84;4919198;29;20078;-76
2023/07/08 03:46:50;;;;;;;5.80;3.33;;;;;;;16.59;74.67;101543.47;4901839;29;20041;-76
2023/07/08 03:49:19;;;;;;;7.68;3.78;;;;;;;16.59;76.12;101561.75;4919292;29;20028;-75
2023/07/08 03:51:44;;;;;;;7.60;3.80;;;;;;;16.50;76.38;101546.78;4919306;29;20169;-74
2023/07/08 03:54:12;;;;;;;7.63;3.70;;;;;;;16.48;75.29;101538.25;4919374;29;20115;-76
2023/07/08 03:56:38;;;;;;;6.65;3.97;;;;;;;16.49;75.54;101540.75;4919165;29;20385;-76
2023/07/08 03:59:03;;;;;;;8.60;3.55;;;;;;;16.60;76.10;101564.22;4919101;29;20043;-76
2023/07/08 04:01:29;;;;;;;6.78;4.07;;;;;;;16.61;75.97;101563.28;4919234;29;20032;-76
2023/07/08 04:03:57;;;;;;;5.35;3.67;;;;;;;16.52;74.84;101537.09;4901559;29;20088;-75
2023/07/08 04:06:23;;;;;;;6.03;3.65;;;;;;;16.69;75.14;101567.94;4919001;29;20107;-75
2023/07/08 04:08:49;;;;;;;7.88;3.70;;;;;;;16.79;74.46;101570.66;4919012;29;20020;-75
2023/07/08 04:11:20;;;;;;;5.32;3.63;;;;;;;16.87;74.35;101570.91;4902131;29;20028;-76
2023/07/08 04:13:46;;;;;;;6.00;3.75;;;;;;;16.88;73.65;101559.53;4918911;29;20032;-75
2023/07/08 04:16:21;;;;;;;6.78;3.60;;;;;;;16.77;73.18;101523.00;4918777;29;20032;-76
2023/07/08 04:18:47;;;;;;;6.85;3.63;;;;;;;17.07;73.28;101572.78;4918656;29;20020;-75
2023/07/08 04:21:12;;;;;;;6.10;3.25;;;;;;;17.13;73.40;101561.06;4918711;29;20039;-76
2023/07/08 04:23:38;;;;;;;7.28;3.70;;;;;;;17.23;73.11;101575.03;4918674;29;20434;-75
2023/07/08 04:26:03;;;;;;;7.43;4.15;;;;;;;17.32;72.44;101569.09;4918757;29;20431;-75
2023/07/08 04:28:28;;;;;;;7.47;3.67;;;;;;;17.32;72.20;101561.25;4918654;29;20143;-75
2023/07/08 04:30:54;;;;;;;6.90;3.78;;;;;;;17.51;72.25;101570.22;4918233;29;20095;-75
2023/07/08 04:33:19;;;;;;;6.95;4.10;;;;;;;17.58;71.56;101564.38;4918176;29;20036;-75
2023/07/08 04:35:45;;;;;;;8.82;4.30;;;;;;;17.74;71.40;101572.66;4918578;29;20119;-74
2023/07/08 04:38:22;;;;;;;6.75;4.57;;;;;;;17.92;70.80;101574.72;4918370;29;20032;-75
2023/07/08 04:40:48;;;;;;;6.10;3.70;;;;;;;18.05;70.39;101576.19;4918321;29;20403;-76
2023/07/08 04:43:14;;;;;;;8.48;4.50;;;;;;;18.01;69.49;101550.47;4918285;29;20457;-75
2023/07/08 04:45:41;;;;;;;6.13;4.35;;;;;;;18.15;69.68;101564.97;4901260;29;20075;-75
2023/07/08 04:48:12;;;;;;;7.32;4.22;;;;;;;18.19;69.24;101563.75;4918202;29;20039;-75
2023/07/08 04:50:45;;;;;;;7.75;4.22;;;;;;;18.12;69.36;101557.41;4918347;29;20083;-75
2023/07/08 04:53:12;;;;;;;7.20;4.53;;;;;;;18.08;70.31;101564.66;4918229;29;20108;-78
2023/07/08 04:55:52;;;;;;;6.72;3.95;;;;;;;18.16;69.74;101564.84;4918118;29;20038;-75
2023/07/08 04:58:18;;;;;;;7.10;4.00;;;;;;;17.99;69.97;101540.13;4917915;29;20036;-77
2023/07/08 05:00:43;;;;;;;6.60;3.63;;;;;;;18.23;70.34;101575.63;4918027;29;20028;-75
2023/07/08 05:03:08;;;;;;;6.75;4.13;;;;;;;18.28;69.02;101558.59;4900883;29;20096;-74
2023/07/08 05:05:34;;;;;;;7.72;4.30;;;;;;;18.44;69.29;101565.16;4917948;29;20036;-75
2023/07/08 05:07:59;;;;;;;5.50;3.95;;;;;;;18.60;69.27;101563.75;4900828;29;20096;-74
2023/07/08 05:10:25;;;;;;;8.45;4.45;;;;;;;18.88;68.43;101558.78;4917907;29;20028;-75
2023/07/08 05:12:50;;;;;;;11.90;4.63;;;;;;;19.17;66.61;101558.84;4917645;29;20083;-74
2023/07/08 05:15:16;;;;;;;6.20;3.97;;;;;;;19.34;67.08;101545.09;4917652;29;20036;-75
2023/07/08 05:17:42;;;;;;;8.50;4.30;;;;;;;19.64;64.33;101562.53;4917561;29;20035;-74
2023/07/08 05:20:09;;;;;;;7.90;4.60;;;;;;;19.57;63.79;101569.31;4917506;29;20039;-73
2023/07/08 05:22:35;;;;;;;8.10;4.45;;;;;;;19.44;66.11;101560.81;4917897;29;20036;-74
2023/07/08 05:25:01;;;;;;;8.43;4.50;;;;;;;19.77;64.66;101564.91;4918104;29;20028;-72
2023/07/08 05:27:27;;;;;;;7.65;4.70;;;;;;;20.23;63.17;101565.94;4937098;29;20027;-72
2023/07/08 05:29:53;;;;;;;7.78;4.18;;;;;;;20.88;61.75;101562.41;4919149;29;20478;-73
2023/07/08 05:32:19;;;;;;;7.75;4.47;;;;;;;21.72;58.33;101559.53;4919117;29;20050;-74
2023/07/08 05:34:44;;;;;;;8.52;4.25;;;;;;;22.32;56.15;101548.34;4936407;29;20020;-71
2023/07/08 05:37:11;;;;;;;6.90;4.50;;;;;;;23.13;53.81;101561.88;4936449;29;20159;-76
2023/07/08 05:39:36;;;;;;;7.88;4.50;;;;;;;23.70;53.57;101551.44;4936398;29;20030;-73
2023/07/08 05:42:02;;;;;;;7.68;4.25;;;;;;;24.53;49.87;101551.16;4936325;29;20441;-73
2023/07/08 05:44:27;;;;;;;8.00;4.40;;;;;;;25.26;48.13;101546.53;4935903;29;20497;-74
2023/07/08 05:46:52;;;;;;;8.75;4.78;;;;;;;26.07;46.95;101553.03;4935712;29;20040;-74
2023/07/08 05:49:18;;;;;;;7.38;4.47;;;;;;;26.64;44.74;101545.28;4935901;29;20079;-71
2023/07/08 05:52:05;;;;;;;7.18;4.78;;;;;;;27.26;44.58;101552.78;4947194;23;20114;-74
2023/07/08 05:54:33;;;;;;;8.48;4.97;;;;;;;27.39;43.30;101552.06;4936383;29;20046;-74
2023/07/08 05:56:59;;;;;;;8.10;4.97;;;;;;;28.15;40.79;101550.47;4955072;29;20039;-75
2023/07/08 05:59:24;;;;;;;8.98;4.60;;;;;;;28.60;40.74;101550.13;4954775;29;20019;-74
2023/07/08 06:01:49;;;;;;;8.45;4.50;;;;;;;29.47;38.43;101538.72;4955070;29;20034;-75
2023/07/08 06:04:15;;;;;;;8.48;4.80;;;;;;;29.21;38.08;101555.47;4955008;29;20027;-75
2023/07/08 06:06:40;;;;;;;9.27;4.47;;;;;;;29.34;38.66;101558.16;4954953;29;20031;-72
2023/07/08 06:09:05;;;;;;;8.80;5.32;;;;;;;29.82;37.06;101536.72;4955248;29;20031;-75
2023/07/08 06:11:31;;;;;;;9.02;4.82;;;;;;;29.86;35.88;101544.06;4954963;29;20055;-76
2023/07/08 06:13:57;;;;;;;8.23;5.80;;;;;;;30.28;35.28;101549.94;4954654;29;20090;-75
2023/07/08 06:16:23;;;;;;;9.38;5.78;;;;;;;30.66;35.03;101559.91;4954835;29;20094;-75
2023/07/08 06:18:48;;;;;;;7.65;4.82;;;;;;;30.72;34.79;101561.75;4954946;29;20477;-76
2023/07/08 06:21:13;;;;;;;11.55;5.18;;;;;;;30.89;35.54;101565.56;4962379;23;20073;-76
2023/07/08 06:23:39;;;;;;;9.60;5.95;;;;;;;31.59;33.22;101563.69;4953429;29;20078;-75
2023/07/08 06:26:04;;;;;;;7.85;5.55;;;;;;;31.30;33.60;101529.63;4954476;29;20073;-77
2023/07/08 06:28:29;;;;;;;9.82;5.80;;;;;;;30.95;34.58;101567.34;4954551;29;20082;-78
2023/07/08 06:30:55;;;;;;;10.20;5.57;;;;;;;31.05;34.50;101565.03;4954575;29;20465;-76
2023/07/08 06:33:20;;;;;;;7.40;5.60;;;;;;;31.34;34.59;101544.16;4936544;29;20042;-77
2023/07/08 06:35:45;;;;;;;11.10;5.75;;;;;;;31.94;32.99;101544.50;4954204;29;20043;-77
2023/07/08 06:38:12;;;;;;;8.57;5.72;;;;;;;32.72;31.46;101541.16;4954234;29;20027;-78
2023/07/08 06:40:37;;;;;;;7.85;5.43;;;;;;;33.02;30.30;101558.06;4937161;29;20031;-76
2023/07/08 06:43:03;;;;;;;9.13;5.53;;;;;;;32.85;32.27;101566.97;4954653;29;20370;-77
2023/07/08 06:45:28;;;;;;;7.72;4.85;;;;;;;33.44;30.94;101557.28;4954425;29;20062;-77
2023/07/08 06:47:53;;;;;;;6.97;4.35;;;;;;;33.75;29.66;101564.16;4954411;29;20023;-76
2023/07/08 06:50:19;;;;;;;7.45;4.90;;;;;;;33.55;29.72;101565.31;4954606;29;20041;-77
2023/07/08 06:52:44;;;;;;;9.30;5.28;;;;;;;33.67;28.38;101535.84;4954651;29;20027;-77
2023/07/08 06:55:10;;;;;;;8.93;4.55;;;;;;;33.19;28.79;101554.75;4954416;29;20436;-78
2023/07/08 06:57:38;;;;;;;9.40;4.97;;;;;;;32.54;30.12;101561.53;4954652;29;20031;-76
2023/07/08 07:00:09;;;;;;;11.93;5.25;;;;;;;31.96;31.43;101542.44;4954376;29;20102;-76
2023/07/08 07:02:34;;;;;;;8.88;5.22;;;;;;;32.94;30.02;101553.06;4954452;29;20030;-76
2023/07/08 07:05:01;;;;;;;10.55;5.05;;;;;;;32.89;30.17;101501.25;4954074;29;20114;-77
2023/07/08 07:07:26;;;;;;;8.57;4.60;;;;;;;33.14;31.14;101544.72;4954423;29;20027;-76
2023/07/08 07:09:53;;;;;;;9.45;4.65;;;;;;;34.39;28.19;101551.69;4941856;29;20437;-73
2023/07/08 07:12:18;;;;;;;7.65;4.60;;;;;;;34.30;28.53;101539.66;4936324;29;20032;-74
2023/07/08 07:14:43;;;;;;;11.20;5.00;;;;;;;35.01;27.87;101558.00;4917635;29;20165;-76
2023/07/08 07:17:08;;;;;;;8.90;4.53;;;;;;;34.64;27.84;101551.38;4935360;29;20024;-76
2023/07/08 07:19:37;;;;;;;7.72;4.68;;;;;;;34.68;28.77;101552.50;4935005;29;20027;-76
2023/07/08 07:22:03;;;;;;;7.90;4.88;;;;;;;35.40;26.56;101542.03;4932732;29;20051;-74
2023/07/08 07:24:28;;;;;;;9.23;4.90;;;;;;;35.43;27.20;101546.09;4934717;29;20091;-74
2023/07/08 07:26:54;;;;;;;8.55;4.60;;;;;;;36.01;27.08;101532.19;4934996;29;20107;-79
2023/07/08 07:29:22;;;;;;;8.90;4.97;;;;;;;36.16;25.77;101540.44;4934994;29;20090;-76
2023/07/08 07:31:47;;;;;;;10.52;4.60;;;;;;;35.78;27.11;101543.13;4934940;29;20493;-74
2023/07/08 07:34:14;;;;;;;9.90;4.65;;;;;;;35.78;27.41;101546.63;4935185;29;20028;-75
2023/07/08 07:36:39;;;;;;;14.05;5.70;;;;;;;35.97;25.58;101517.63;4934559;29;20189;-73
2023/07/08 07:39:05;;;;;;;9.57;5.18;;;;;;;35.80;26.67;101549.09;4935047;29;20378;-79
2023/07/08 07:41:30;;;;;;;10.45;5.60;;;;;;;35.93;26.39;101535.31;4917678;29;20083;-77
2023/07/08 07:43:55;;;;;;;9.05;5.05;;;;;;;35.36;27.14;101535.47;4934647;29;20406;-77
2023/07/08 07:46:21;;;;;;;9.02;5.90;;;;;;;33.83;28.37;101542.41;4934782;29;20024;-74
2023/07/08 07:48:46;;;;;;;10.23;5.90;;;;;;;31.98;31.25;101535.00;4937306;29;20030;-77
2023/07/08 07:51:12;;;;;;;8.80;5.55;;;;;;;30.85;33.84;101556.34;4920740;29;20098;-77
2023/07/08 07:53:38;;;;;;;8.82;5.88;;;;;;;29.62;36.27;101529.56;4938240;29;20023;-77
2023/07/08 07:56:04;;;;;;;11.15;6.15;;;;;;;29.02;37.39;101543.78;4921028;29;20031;-77
2023/07/08 07:58:29;;;;;;;14.25;6.15;;;;;;;28.34;38.52;101508.31;4975416;23;20063;-76
2023/07/08 08:00:55;;;;;;;11.55;6.50;;;;;;;28.12;40.06;101553.53;4919080;29;20117;-76
2023/07/08 08:03:21;;;;;;;10.25;6.70;;;;;;;27.91;41.10;101551.72;4918983;29;20025;-76
2023/07/08 08:05:47;;;;;;;10.45;6.95;;;;;;;27.67;41.51;101534.41;4918839;29;20046;-76
2023/07/08 08:08:13;;;;;;;9.88;6.90;;;;;;;27.33;41.95;101529.78;4918953;29;20024;-76
2023/07/08 08:10:38;;;;;;;9.02;7.00;;;;;;;27.00;42.32;101531.25;4919026;29;20039;-76
2023/07/08 08:13:04;;;;;;;12.52;7.22;;;;;;;26.94;43.50;101548.75;4902045;29;20025;-76
2023/07/08 08:15:30;;;;;;;11.68;7.20;;;;;;;26.84;43.58;101545.53;4918854;29;20039;-76
2023/07/08 08:17:56;;;;;;;13.45;6.82;;;;;;;26.78;44.04;101557.72;4917286;29;20024;-76
2023/07/08 08:20:23;;;;;;;10.32;6.63;;;;;;;26.47;45.40;101506.78;4926587;23;20052;-75
2023/07/08 08:23:16;;;;;;;11.43;6.82;;;;;;;26.92;44.37;101561.34;4918818;29;20036;-77
2023/07/08 08:25:42;;;;;;;12.20;7.05;;;;;;;26.53;44.69;101496.25;4918493;29;20067;-77
2023/07/08 08:28:07;;;;;;;10.85;6.72;;;;;;;26.17;45.12;101447.72;4918854;29;20103;-75
2023/07/08 08:30:33;;;;;;;11.50;6.50;;;;;;;27.01;45.43;101562.03;4918388;29;20024;-76
2023/07/08 08:32:58;;;;;;;10.85;6.88;;;;;;;26.98;44.99;101565.06;4918350;29;20482;-76
2023/07/08 08:35:26;;;;;;;12.77;6.65;;;;;;;27.08;46.13;101565.63;4918501;29;20027;-75
2023/07/08 08:37:53;;;;;;;9.85;6.65;;;;;;;27.12;44.63;101565.06;4918148;29;20466;-76
2023/07/08 08:40:19;;;;;;;10.70;7.18;;;;;;;26.89;45.28;101543.16;4918614;29;20032;-77
2023/07/08 08:42:53;;;;;;;13.05;7.45;;;;;;;27.06;45.85;101573.78;4918378;29;20024;-77
2023/07/08 08:45:20;;;;;;;11.57;7.30;;;;;;;26.99;45.03;101554.28;4902224;29;20094;-74
2023/07/08 08:47:51;;;;;;;12.23;7.13;;;;;;;27.09;43.72;101561.97;4918398;29;20135;-73
2023/07/08 08:50:28;;;;;;;11.50;6.82;;;;;;;27.40;44.80;101580.25;4918323;29;20393;-75
2023/07/08 08:52:55;;;;;;;12.80;6.72;;;;;;;27.36;43.77;101579.81;4918202;29;20040;-76
2023/07/08 08:55:24;;;;;;;11.30;7.00;;;;;;;27.44;44.84;101587.66;4918202;29;20086;-76
2023/07/08 08:57:52;;;;;;;11.85;7.15;;;;;;;27.41;44.36;101588.00;4900462;29;20482;-75
2023/07/08 09:00:26;;;;;;;11.55;7.25;;;;;;;27.30;44.82;101569.13;4899958;29;20040;-75
2023/07/08 09:03:04;;;;;;;13.45;7.25;;;;;;;27.15;44.78;101540.84;4917915;29;20470;-76
2023/07/08 09:05:29;;;;;;;11.63;7.85;;;;;;;27.32;44.10;101577.72;4917842;29;20036;-75
2023/07/08 09:08:20;;;;;;;11.13;7.05;;;;;;;27.36;45.36;101592.25;4917855;29;20504;-75
2023/07/08 09:11:03;;;;;;;13.57;8.07;;;;;;;27.32;44.22;101583.00;4918120;29;20401;-75
2023/07/08 09:13:34;;;;;;;11.63;7.72;;;;;;;27.40;45.40;101586.38;4917737;29;20284;-76
2023/07/08 09:16:25;;;;;;;14.43;7.55;;;;;;;27.55;44.10;101583.66;4917833;29;20032;-75
2023/07/08 09:19:04;;;;;;;;;;;;;;;27.68;44.31;101585.66;4918004;29;20099;-75
2023/07/08 09:21:54;;;;;;;11.75;7.22;;;;;;;27.93;43.80;101578.94;4900659;29;20014;-75
2023/07/08 09:24:49;;;;;;;11.17;6.87;;;;;;;28.10;42.86;101574.13;4917594;29;20039;-75
2023/07/08 09:27:14;;;;;;;11.45;7.07;;;;;;;28.13;43.54;101578.25;4915689;29;20139;-74
2023/07/08 09:41:47;;;;;;;11.75;7.38;;;;;;;28.48;43.42;101563.16;4955875;29;20074;-76
2023/07/08 09:44:57;;;;;;;10.05;6.78;;;;;;;27.68;43.54;101434.38;4955235;29;20102;-75
2023/07/08 09:47:30;;;;;;;10.55;7.22;;;;;;;28.62;42.92;101554.25;4877465;29;20605;-76
2023/07/08 09:49:57;;;;;;;11.93;6.75;;;;;;;28.54;41.46;101552.56;4877648;29;20036;-79
2023/07/08 09:52:23;;;;;;;10.95;6.93;;;;;;;28.61;40.91;101575.69;4877268;29;20037;-76
2023/07/08 09:54:49;;;;;;;11.57;6.95;;;;;;;28.65;41.35;101563.66;4877455;29;20479;-76
2023/07/08 09:57:27;;;;;;;12.95;7.15;;;;;;;28.84;39.45;101569.03;4877076;29;20044;-76
2023/07/08 10:00:03;;;;;;;11.35;7.47;;;;;;;28.78;40.92;101559.19;4877534;29;20464;-76
2023/07/08 10:02:36;;;;;;;12.63;7.57;;;;;;;28.80;42.39;101549.19;4877201;29;20037;-76
2023/07/08 10:07:37;;;;;;;12.82;7.18;;;;;;;28.83;40.49;101524.06;4970319;23;20055;-77
2023/07/08 10:10:07;;;;;;;11.73;7.28;;;;;;;28.87;39.16;101533.25;4945111;29;20402;-75
2023/07/08 10:12:40;;;;;;;8.68;6.45;;;;;;;28.91;39.42;101539.00;4936405;29;20035;-77
2023/07/08 10:15:18;;;;;;;11.93;7.45;;;;;;;29.14;38.01;101548.31;4936233;29;20028;-78
2023/07/08 10:17:43;;;;;;;10.57;6.95;;;;;;;29.15;37.18;101549.13;4935736;29;20032;-78
2023/07/08 10:20:12;;;;;;;10.93;6.72;;;;;;;29.23;35.81;101551.59;4935600;29;20355;-77
2023/07/08 10:23:08;;;;;;;11.57;6.93;;;;;;;29.28;38.00;101549.13;4935639;29;20143;-79
2023/07/08 10:25:48;;;;;;;16.83;7.70;;;;;;;29.35;36.79;101551.81;4935364;29;20698;-79
2023/07/08 10:28:43;;;;;;;10.53;6.97;;;;;;;29.40;37.62;101557.34;4918455;29;20043;-80
2023/07/08 10:31:31;;;;;;;13.80;7.90;;;;;;;29.28;38.14;101551.78;4935457;29;20649;-78
2023/07/08 10:34:14;;;;;;;10.95;7.20;;;;;;;29.32;37.83;101554.88;4935450;29;20027;-77
2023/07/08 10:36:51;;;;;;;11.40;6.95;;;;;;;29.31;37.45;101558.56;4918026;29;20039;-78
2023/07/08 10:39:33;;;;;;;11.05;6.82;;;;;;;29.43;38.54;101559.59;5002607;23;20068;-76
2023/07/08 10:42:35;;;;;;;12.00;6.65;;;;;;;29.52;37.93;101554.94;4935335;29;20034;-78
2023/07/08 10:45:13;;;;;;;9.20;6.75;;;;;;;29.73;35.96;101552.06;4935328;29;20032;-79
2023/07/08 10:48:06;;;;;;;10.80;7.07;;;;;;;29.68;37.06;101554.50;4935394;29;20114;-77
2023/07/08 10:50:56;;;;;;;10.18;6.90;;;;;;;29.77;39.59;101555.13;4935400;29;20151;-77
2023/07/08 10:53:58;;;;;;;11.38;7.10;;;;;;;29.82;40.27;101561.50;4934695;29;20027;-77
2023/07/08 10:56:36;;;;;;;11.43;7.00;;;;;;;29.79;40.11;101543.25;4935290;29;20028;-79
2023/07/08 11:02:18;;;;;;;13.55;7.57;;;;;;;29.83;38.72;101552.47;4933812;29;20055;-79
2023/07/08 11:05:41;;;;;;;12.35;7.53;;;;;;;29.89;38.35;101548.16;4935340;29;20031;-79
2023/07/08 11:08:59;;;;;;;11.98;7.57;;;;;;;29.87;38.85;101552.88;4934975;29;20032;-79
2023/07/08 11:14:55;;;;;;;10.88;7.25;;;;;;;30.16;38.12;101554.28;4893939;29;20042;-78
2023/07/08 11:24:42;;;;;;;12.43;7.13;;;;;;;30.32;36.45;101553.84;4860810;29;20042;-80
2023/07/08 11:27:43;;;;;;;9.57;6.65;;;;;;;30.43;36.43;101545.19;4861537;29;20392;-76
2023/07/08 11:30:11;;;;;;;10.43;7.18;;;;;;;30.45;33.11;101545.81;4861416;29;20138;-76
2023/07/08 11:32:38;;;;;;;9.85;6.95;;;;;;;30.59;34.12;101548.44;4861389;29;20037;-76
2023/07/08 11:35:07;;;;;;;12.32;7.07;;;;;;;30.73;33.16;101545.53;4845525;29;20100;-77
2023/07/08 11:37:34;;;;;;;11.30;6.75;;;;;;;30.77;31.93;101544.06;4861229;29;20044;-76
2023/07/08 11:40:05;;;;;;;10.75;6.68;;;;;;;30.84;31.15;101546.69;4860985;29;20511;-77
2023/07/08 11:42:38;;;;;;;11.10;7.28;;;;;;;30.91;31.38;101531.47;4861197;29;20165;-77
2023/07/08 11:45:11;;;;;;;11.38;6.88;;;;;;;30.87;30.43;101516.91;4860992;29;20045;-77
2023/07/08 11:47:48;;;;;;;10.48;6.38;;;;;;;31.04;30.31;101536.72;4909763;29;20453;-77
2023/07/08 11:50:35;;;;;;;10.88;7.30;;;;;;;31.06;31.06;101536.50;4937959;29;20103;-76
2023/07/08 11:53:02;;;;;;;10.38;6.93;;;;;;;31.22;33.51;101536.03;4938151;29;20032;-78
2023/07/08 11:55:55;;;;;;;10.35;6.57;;;;;;;31.33;31.20;101542.53;4938083;29;20123;-77
2023/07/08 11:58:25;;;;;;;11.65;6.28;;;;;;;31.40;29.57;101532.63;4938087;29;20115;-76
2023/07/08 12:01:17;;;;;;;13.02;6.90;;;;;;;31.40;30.93;101532.63;4921020;29;20079;-77